Time;durP1;ratioP1;P1;durP2;ratioP2;P2;SDS_P1;SDS_P2;PMS_P1;PMS_P2;Temp;Humidity;BMP_temperature;BMP_pressure;BME280_temperature;BME280_humidity;BME280_pressure;Samples;Min_cycle;Max_cycle;Signal;HPM_P1;HPM_P2
2024/01/24 11:53:48;;;;;;;;;;;;;;;2.55;100.00;100253.61;1809169;78;20095;-72
2024/01/24 11:56:15;;;;;;;;;;;;;;;2.53;100.00;100252.80;1766964;80;20108;-74
2024/01/24 11:58:41;;;;;;;;;;;;;;;2.54;100.00;100239.06;1800379;77;20138;-72
2024/01/24 12:01:13;;;;;;;;;;;;;;;2.54;100.00;100239.06;1784061;79;20133;-71
2024/01/24 12:03:46;;;;;;;;;;;;;;;2.53;100.00;100231.38;1826819;79;20149;-75
2024/01/24 12:06:13;;;;;;;;;;;;;;;2.50;100.00;100232.29;1826830;79;20094;-76
2024/01/24 12:08:39;;;;;;;;;;;;;;;2.51;100.00;100230.13;1818575;77;20118;-86
2024/01/24 12:11:09;;;;;;;;;;;;;;;2.51;100.00;100227.56;1834986;78;20128;-85
2024/01/24 12:13:35;;;;;;;;;;;;;;;2.52;100.00;100226.68;1826467;78;20165;-77
2024/01/24 12:16:01;;;;;;;;;;;;;;;2.52;100.00;100220.25;1833214;78;20915;-68
2024/01/24 12:18:28;;;;;;;;;;;;;;;2.53;100.00;100229.66;1834820;78;20105;-69
2024/01/24 12:20:54;;;;;;;;;;;;;;;2.53;100.00;100225.80;1816132;77;20436;-73
2024/01/24 12:23:21;;;;;;;;;;;;;;;2.55;100.00;100222.77;1832926;78;20189;-70
2024/01/24 12:25:47;;;;;;;;;;;;;;;2.55;100.00;100224.48;1804018;78;20105;-69
2024/01/24 12:28:14;;;;;;;;;;;;;;;2.56;100.00;100215.91;1826660;78;20100;-67
2024/01/24 12:30:44;;;;;;;;;;;;;;;2.54;100.00;100213.36;1835733;78;20129;-76
2024/01/24 12:33:10;;;;;;;;;;;;;;;2.53;100.00;100207.81;1829244;78;20147;-78
2024/01/24 12:35:37;;;;;;;;;;;;;;;2.53;100.00;100203.95;1829959;78;20198;-72
2024/01/24 12:38:04;;;;;;;;;;;;;;;2.55;100.00;100202.20;1814899;78;20155;-80
2024/01/24 12:40:31;;;;;;;;;;;;;;;2.55;100.00;100191.92;1824287;77;20174;-76
2024/01/24 12:42:58;;;;;;;;;;;;;;;2.56;100.00;100194.05;1829519;77;20417;-69
2024/01/24 12:45:25;;;;;;;;;;;;;;;2.56;100.00;100187.19;1825601;77;20152;-81
2024/01/24 12:47:52;;;;;;;;;;;;;;;2.56;100.00;100179.48;1824298;77;20098;-69
2024/01/24 12:50:18;;;;;;;;;;;;;;;2.59;100.00;100172.14;1825887;77;20137;-69
2024/01/24 12:52:45;;;;;;;;;;;;;;;2.58;100.00;100166.16;1840128;77;20131;-73
2024/01/24 12:55:12;;;;;;;;;;;;;;;2.62;100.00;100163.08;1831809;77;20094;-69
2024/01/24 12:57:40;;;;;;;;;;;;;;;2.64;100.00;100160.03;1821126;79;20093;-72
2024/01/24 13:00:09;;;;;;;;;;;;;;;2.63;100.00;100163.05;1819451;79;20149;-74
2024/01/24 13:02:38;;;;;;;;;;;;;;;2.59;100.00;100156.72;1835265;77;20103;-74
2024/01/24 13:05:05;;;;;;;;;;;;;;;2.55;100.00;100157.22;1840354;77;20215;-69
2024/01/24 13:07:33;;;;;;;;;;;;;;;2.51;100.00;100153.46;1831938;77;20114;-72
2024/01/24 13:09:59;;;;;;;;;;;;;;;2.48;100.00;100153.52;1828560;77;20132;-70
2024/01/24 13:12:26;;;;;;;;;;;;;;;2.44;100.00;100142.45;1833344;77;20132;-71
2024/01/24 13:14:53;;;;;;;;;;;;;;;2.43;100.00;100136.06;1831098;77;20119;-72
2024/01/24 13:17:20;;;;;;;;;;;;;;;2.44;100.00;100132.62;1835281;77;20558;-75
2024/01/24 13:19:47;;;;;;;;;;;;;;;2.43;100.00;100125.34;1831263;77;20153;-77
2024/01/24 13:22:13;;;;;;;;;;;;;;;2.44;100.00;100123.19;1832002;77;20192;-69
2024/01/24 13:24:39;;;;;;;;;;;;;;;2.44;100.00;100128.77;1834011;77;20151;-76
2024/01/24 13:27:06;;;;;;;;;;;;;;;2.44;100.00;100115.91;1824311;77;20150;-75
2024/01/24 13:29:32;;;;;;;;;;;;;;;2.42;100.00;100113.38;1828654;77;20112;-76
2024/01/24 13:31:59;;;;;;;;;;;;;;;2.42;100.00;100109.52;1825779;77;20160;-73
2024/01/24 13:34:25;;;;;;;;;;;;;;;2.42;100.00;100106.11;1829734;77;20168;-73
2024/01/24 13:36:51;;;;;;;;;;;;;;;2.42;100.00;100106.95;1827161;77;20123;-73
2024/01/24 13:39:18;;;;;;;;;;;;;;;2.44;100.00;100096.20;1824775;77;20139;-72
2024/01/24 13:41:45;;;;;;;;;;;;;;;2.44;100.00;100102.63;1822864;78;20107;-71
2024/01/24 13:44:11;;;;;;;;;;;;;;;2.47;100.00;100096.58;1825616;78;20083;-75
2024/01/24 13:46:37;;;;;;;;;;;;;;;2.47;100.00;100092.28;1828463;78;20126;-74
2024/01/24 13:49:04;;;;;;;;;;;;;;;2.47;100.00;100088.87;1832704;78;20130;-73
2024/01/24 13:51:31;;;;;;;;;;;;;;;2.45;100.00;100082.47;1832549;78;20142;-74
2024/01/24 13:53:58;;;;;;;;;;;;;;;2.45;100.00;100095.77;1832770;78;20158;-73
2024/01/24 13:56:24;;;;;;;;;;;;;;;2.44;100.00;100086.36;1829707;78;20139;-70
2024/01/24 13:58:51;;;;;;;;;;;;;;;2.42;100.00;100081.70;1832835;78;20374;-70
2024/01/24 14:01:17;;;;;;;;;;;;;;;2.41;100.00;100087.27;1863667;77;20190;-74
2024/01/24 14:03:43;;;;;;;;;;;;;;;2.39;100.00;100083.08;1866527;77;20373;-73
2024/01/24 14:06:11;;;;;;;;;;;;;;;2.34;100.00;100071.61;1836810;77;20409;-71
2024/01/24 14:08:37;;;;;;;;;;;;;;;2.27;100.00;100072.18;1803566;78;20142;-73
2024/01/24 14:11:06;;;;;;;;;;;;;;;2.22;100.00;100062.88;1843487;78;20151;-75
2024/01/24 14:13:35;;;;;;;;;;;;;;;2.17;100.00;100060.84;1835022;78;20099;-71
2024/01/24 14:16:02;;;;;;;;;;;;;;;2.13;100.00;100051.52;1810927;79;20087;-72
2024/01/24 14:18:29;;;;;;;;;;;;;;;2.11;100.00;100048.13;1843266;78;20116;-69
2024/01/24 14:20:56;;;;;;;;;;;;;;;2.06;100.00;100046.94;1840109;78;20076;-74
2024/01/24 14:23:22;;;;;;;;;;;;;;;2.01;100.00;100044.47;1821803;78;20102;-75
2024/01/24 14:25:48;;;;;;;;;;;;;;;1.96;100.00;100040.33;1813617;78;20123;-73
2024/01/24 14:28:16;;;;;;;;;;;;;;;1.91;100.00;100039.58;1817221;78;20096;-71
2024/01/24 14:30:42;;;;;;;;;;;;;;;1.87;100.00;100031.53;1843032;78;20100;-73
2024/01/24 14:33:08;;;;;;;;;;;;;;;1.81;100.00;100027.80;1817355;78;20416;-74
2024/01/24 14:35:35;;;;;;;;;;;;;;;1.77;100.00;100035.16;1810570;79;20138;-75
2024/01/24 14:38:01;;;;;;;;;;;;;;;1.72;100.00;100023.70;1809842;79;20400;-70
2024/01/24 14:40:28;;;;;;;;;;;;;;;1.70;100.00;100020.31;1814037;77;20113;-75
2024/01/24 14:42:54;;;;;;;;;;;;;;;1.67;100.00;100010.11;1821170;77;20381;-72
2024/01/24 14:45:20;;;;;;;;;;;;;;;1.63;100.00;100003.34;1849998;77;20111;-70
2024/01/24 14:47:47;;;;;;;;;;;;;;;1.59;100.00;100008.16;1826455;77;20122;-72
